Sosnogorsk, Russia
Current Conditions -  °F | °C
As of 7:00 AM on Monday 20 Oct 2014 (Local Time) from UUYY Reporting Station
Few Clouds Few Clouds  
Wind Chill:   Ceiling: Unl
Heat Index:   Visibility: 5mi
Dew Point:   Wind: 2mph
Humidity: 85%   Direction: NA
Pressure: 29.88"   Gusts: NA
Location:  63.6°N, 53.88°E
Report Text: UUYY 200400Z VRB01MPS 8000 FEW200 M14/M16 Q1012 NOSIG 01CLRD61RMK QFE749/0999
Loading
Personal Weather Stations






























Interactive Weather Map
Tropical Storm Tracking
New forecast layout! Learn more

10-Day Weather Forecast

Advertisements
Track Severe Weather on mobile